createdAt,value
2022-12-04T00:02:04.003Z,1.37
2022-12-04T00:04:50.837Z,1.30
2022-12-04T00:07:37.568Z,1.12
2022-12-04T00:10:24.325Z,1.43
2022-12-04T00:13:10.892Z,1.37
2022-12-04T00:15:57.254Z,1.19
2022-12-04T00:18:44.547Z,1.35
2022-12-04T00:21:31.597Z,1.25
2022-12-04T00:24:18.277Z,1.19
2022-12-04T00:27:04.798Z,1.29
2022-12-04T00:29:51.238Z,1.25
2022-12-04T00:32:37.900Z,1.40
2022-12-04T00:35:26.232Z,1.25
2022-12-04T00:38:12.949Z,1.40
2022-12-04T00:41:00.818Z,1.40
2022-12-04T00:43:47.408Z,1.39
2022-12-04T00:46:34.137Z,1.24
2022-12-04T00:49:20.436Z,1.22
2022-12-04T00:52:07.145Z,1.40
2022-12-04T00:54:54.074Z,1.39
2022-12-04T00:57:40.915Z,1.38
2022-12-04T01:00:27.618Z,1.35
2022-12-04T01:03:14.386Z,1.28
2022-12-04T01:06:01.633Z,1.40
2022-12-04T01:08:49.843Z,1.45
2022-12-04T01:11:36.541Z,1.23
2022-12-04T01:14:23.207Z,1.26
2022-12-04T01:17:09.673Z,1.35
2022-12-04T01:19:56.310Z,1.30
2022-12-04T01:22:43.098Z,1.27
2022-12-04T01:25:29.614Z,1.30
2022-12-04T01:28:16.161Z,1.15
2022-12-04T01:31:09.146Z,1.17
2022-12-04T01:33:55.809Z,1.18
2022-12-04T01:36:42.112Z,1.25
2022-12-04T01:39:28.609Z,1.16
2022-12-04T01:42:15.854Z,1.34
2022-12-04T01:45:40.106Z,1.34
2022-12-04T01:48:30.985Z,1.31
2022-12-04T01:51:20.981Z,1.22
2022-12-04T01:54:11.129Z,1.22
2022-12-04T01:56:59.754Z,1.17
2022-12-04T01:59:57.542Z,1.12
2022-12-04T02:02:47.689Z,1.36
2022-12-04T02:05:34.448Z,1.23
2022-12-04T02:08:21.159Z,1.29
2022-12-04T02:11:25.961Z,1.37
2022-12-04T02:14:50.927Z,1.26
2022-12-04T02:17:54.254Z,1.26
2022-12-04T02:20:55.603Z,1.21
2022-12-04T02:24:04.000Z,1.39
2022-12-04T02:27:01.076Z,1.31
2022-12-04T02:29:59.053Z,1.34
2022-12-04T02:33:11.442Z,1.27
2022-12-04T02:36:07.739Z,1.37
2022-12-04T02:38:57.119Z,1.18
2022-12-04T02:42:14.164Z,1.23
2022-12-04T02:45:09.055Z,1.28
2022-12-04T02:47:56.885Z,1.37
2022-12-04T02:50:47.258Z,1.29
2022-12-04T02:53:38.152Z,1.42
2022-12-04T02:56:28.847Z,1.41
2022-12-04T02:59:20.386Z,1.32
2022-12-04T03:02:19.711Z,1.31
2022-12-04T03:05:21.148Z,1.47
2022-12-04T03:08:14.357Z,1.41
2022-12-04T03:11:01.965Z,1.35
2022-12-04T03:13:56.903Z,1.24
2022-12-04T03:16:44.205Z,1.20
2022-12-04T03:19:42.844Z,1.17
2022-12-04T03:22:31.655Z,1.39
2022-12-04T03:25:25.938Z,1.39
2022-12-04T03:28:31.487Z,1.34
2022-12-04T03:31:24.965Z,1.35
2022-12-04T03:34:15.675Z,1.43
2022-12-04T03:37:13.742Z,1.51
2022-12-04T03:40:15.545Z,1.45
2022-12-04T03:43:20.273Z,1.48
2022-12-04T03:46:12.803Z,1.45
2022-12-04T03:49:12.605Z,1.36
2022-12-04T03:52:07.310Z,1.25
2022-12-04T03:55:00.434Z,1.48
2022-12-04T03:57:48.856Z,1.50
2022-12-04T04:00:39.512Z,1.47
2022-12-04T04:03:34.140Z,1.44
2022-12-04T04:06:39.084Z,1.40
2022-12-04T04:09:29.297Z,1.53
2022-12-04T04:12:20.916Z,1.48
2022-12-04T04:15:31.309Z,1.43
2022-12-04T04:18:36.781Z,1.54
2022-12-04T04:21:47.121Z,1.51
2022-12-04T04:24:36.156Z,1.42
2022-12-04T04:27:22.898Z,1.49
2022-12-04T04:30:10.040Z,1.58
2022-12-04T04:33:11.432Z,1.39
2022-12-04T04:36:07.785Z,1.40
2022-12-04T04:39:01.909Z,1.34
2022-12-04T04:41:56.560Z,1.48
2022-12-04T04:45:04.404Z,1.55
2022-12-04T04:48:12.221Z,1.45
2022-12-04T04:51:00.844Z,1.49
2022-12-04T04:53:52.203Z,1.59
2022-12-04T04:56:46.446Z,1.57
2022-12-04T04:59:34.642Z,1.69
2022-12-04T05:02:21.175Z,1.59
2022-12-04T05:05:07.819Z,1.60
2022-12-04T05:07:54.862Z,1.43
2022-12-04T05:10:41.652Z,1.49
2022-12-04T05:13:29.486Z,1.48
2022-12-04T05:16:16.964Z,1.48
2022-12-04T05:19:21.819Z,1.43
2022-12-04T05:22:09.611Z,1.40
2022-12-04T05:24:56.312Z,1.43
2022-12-04T05:27:43.420Z,1.47
2022-12-04T05:30:29.778Z,1.48
2022-12-04T05:33:16.558Z,1.54
2022-12-04T05:36:06.094Z,1.63
2022-12-04T05:38:52.635Z,1.56
2022-12-04T05:41:39.177Z,1.84
2022-12-04T05:44:26.276Z,1.74
2022-12-04T05:47:12.784Z,1.77
2022-12-04T05:49:59.147Z,1.51
2022-12-04T05:52:45.424Z,1.44
2022-12-04T05:55:31.824Z,1.52
2022-12-04T05:58:18.258Z,1.67
2022-12-04T06:01:13.104Z,1.58
2022-12-04T06:03:59.469Z,1.59
2022-12-04T06:06:46.072Z,1.65
2022-12-04T06:09:32.635Z,1.59
2022-12-04T06:12:19.435Z,1.73
2022-12-04T06:15:06.314Z,1.71
2022-12-04T06:17:52.871Z,1.79
2022-12-04T06:20:39.125Z,1.68
2022-12-04T06:23:25.824Z,1.79
2022-12-04T06:26:12.692Z,1.70
2022-12-04T06:28:59.955Z,1.73
2022-12-04T06:31:46.734Z,1.68
2022-12-04T06:34:33.651Z,1.53
2022-12-04T06:37:23.295Z,1.69
2022-12-04T06:40:10.460Z,1.58
2022-12-04T06:42:57.609Z,1.64
2022-12-04T06:45:44.090Z,1.51
2022-12-04T06:48:31.699Z,1.77
2022-12-04T06:51:20.845Z,1.72
2022-12-04T06:54:08.000Z,1.63
2022-12-04T06:56:54.601Z,1.60
2022-12-04T06:59:41.251Z,1.55
2022-12-04T07:02:27.495Z,1.54
2022-12-04T07:05:14.975Z,1.57
2022-12-04T07:08:01.843Z,1.76
2022-12-04T07:10:48.561Z,1.83
2022-12-04T07:13:34.884Z,1.62
2022-12-04T07:16:23.088Z,1.55
2022-12-04T07:19:11.718Z,1.64
2022-12-04T07:21:58.273Z,1.78
2022-12-04T07:24:44.624Z,1.91
2022-12-04T07:27:32.913Z,1.92
2022-12-04T07:30:19.539Z,1.81
2022-12-04T07:33:06.328Z,1.91
2022-12-04T07:35:58.181Z,1.86
2022-12-04T07:38:45.260Z,1.72
2022-12-04T07:41:31.761Z,1.58
2022-12-04T07:44:24.813Z,1.67
2022-12-04T07:47:11.374Z,1.75
2022-12-04T07:49:58.192Z,1.77
2022-12-04T07:52:46.075Z,1.71
2022-12-04T07:55:32.538Z,1.73
2022-12-04T07:58:19.335Z,1.66
2022-12-04T08:01:08.774Z,1.50
2022-12-04T08:03:57.129Z,1.74
2022-12-04T08:06:43.734Z,1.85
2022-12-04T08:09:30.184Z,1.90
2022-12-04T08:12:16.452Z,1.76
2022-12-04T08:15:03.367Z,1.69
2022-12-04T08:17:49.827Z,1.66
2022-12-04T08:20:36.313Z,1.92
2022-12-04T08:23:22.671Z,1.86
2022-12-04T08:26:10.344Z,2.06
2022-12-04T08:28:57.863Z,1.94
2022-12-04T08:31:44.391Z,1.83
2022-12-04T08:34:30.980Z,1.87
2022-12-04T08:37:18.289Z,1.85
2022-12-04T08:40:05.180Z,1.93
2022-12-04T08:42:51.775Z,2.08
2022-12-04T08:46:01.898Z,2.11
2022-12-04T08:48:49.036Z,2.07
2022-12-04T08:51:35.967Z,2.10
2022-12-04T08:54:22.775Z,2.10
2022-12-04T08:57:09.057Z,1.98
2022-12-04T08:59:55.794Z,1.86
2022-12-04T09:02:42.372Z,2.22
2022-12-04T09:05:30.012Z,2.29
2022-12-04T09:08:17.800Z,2.23
2022-12-04T09:11:13.098Z,2.17
2022-12-04T09:14:00.904Z,2.07
2022-12-04T09:16:47.594Z,2.15
2022-12-04T09:19:35.306Z,2.45
2022-12-04T09:22:21.602Z,2.40
2022-12-04T09:25:08.063Z,2.33
2022-12-04T09:27:59.122Z,2.31
2022-12-04T09:30:46.067Z,2.34
2022-12-04T09:33:33.196Z,2.49
2022-12-04T09:36:20.515Z,2.46
2022-12-04T09:39:07.215Z,2.41
2022-12-04T09:42:18.059Z,2.55
2022-12-04T09:45:13.677Z,2.70
2022-12-04T09:48:01.390Z,2.53
2022-12-04T09:50:49.502Z,2.40
2022-12-04T09:54:01.447Z,2.30
2022-12-04T09:57:00.247Z,2.35
2022-12-04T09:59:47.564Z,2.45
2022-12-04T10:02:38.655Z,2.45
2022-12-04T10:05:44.144Z,2.41
2022-12-04T10:08:42.217Z,2.33
2022-12-04T10:11:50.829Z,2.35
2022-12-04T10:15:04.339Z,2.38
2022-12-04T10:18:23.303Z,2.39
2022-12-04T10:21:34.631Z,2.40
2022-12-04T10:24:31.061Z,2.36
2022-12-04T10:27:29.980Z,2.40
2022-12-04T10:30:21.297Z,2.28
2022-12-04T10:33:19.307Z,2.28
2022-12-04T10:36:07.054Z,2.30
2022-12-04T10:39:06.252Z,2.25
2022-12-04T10:42:05.654Z,2.31
2022-12-04T10:44:53.243Z,2.30
2022-12-04T10:47:45.239Z,2.36
2022-12-04T10:50:31.867Z,2.37
2022-12-04T10:53:27.380Z,2.37
2022-12-04T10:56:23.422Z,2.39
2022-12-04T10:59:15.616Z,2.38
2022-12-04T11:02:22.529Z,2.32
2022-12-04T11:05:34.843Z,2.22
2022-12-04T11:08:24.904Z,2.04
2022-12-04T11:11:14.623Z,2.40
2022-12-04T11:14:14.529Z,2.32
2022-12-04T11:17:06.810Z,2.35
2022-12-04T11:20:06.094Z,2.31
2022-12-04T11:22:57.090Z,2.36
2022-12-04T11:25:50.885Z,2.06
2022-12-04T11:28:42.156Z,1.88
2022-12-04T11:31:30.591Z,2.06
2022-12-04T11:34:24.434Z,2.10
2022-12-04T11:37:36.482Z,2.27
2022-12-04T11:40:26.777Z,2.25
2022-12-04T11:43:15.033Z,2.10
2022-12-04T11:46:06.950Z,2.33
2022-12-04T11:48:53.514Z,2.44
2022-12-04T11:52:22.346Z,2.44
2022-12-04T11:55:15.226Z,2.55
2022-12-04T11:58:27.325Z,2.56
2022-12-04T12:01:28.393Z,2.53
2022-12-04T12:04:45.378Z,2.59
2022-12-04T12:07:43.646Z,2.63
2022-12-04T12:10:46.649Z,2.62
2022-12-04T12:13:52.373Z,2.71
2022-12-04T12:16:57.633Z,2.65
2022-12-04T12:20:14.815Z,2.56
2022-12-04T12:23:44.493Z,2.64
2022-12-04T12:27:25.292Z,2.52
2022-12-04T12:30:21.925Z,2.64
2022-12-04T12:33:08.507Z,2.60
2022-12-04T12:36:03.287Z,2.76
2022-12-04T12:39:12.012Z,2.98
2022-12-04T12:42:01.620Z,2.80
2022-12-04T12:45:33.786Z,2.98
2022-12-04T12:48:35.164Z,2.76
2022-12-04T12:51:37.550Z,2.68
2022-12-04T12:54:26.986Z,2.63
2022-12-04T12:57:36.303Z,2.63
2022-12-04T13:00:24.340Z,2.93
2022-12-04T13:03:10.436Z,3.03
2022-12-04T13:06:03.616Z,2.98
2022-12-04T13:09:14.100Z,2.55
2022-12-04T13:12:08.950Z,2.40
2022-12-04T13:14:55.485Z,2.62
2022-12-04T13:17:44.342Z,2.66
2022-12-04T13:20:39.167Z,2.71
2022-12-04T13:24:13.392Z,2.60
2022-12-04T13:27:21.673Z,2.52
2022-12-04T13:30:22.993Z,2.64
2022-12-04T13:33:35.124Z,2.72
2022-12-04T13:36:34.142Z,2.71
2022-12-04T13:39:35.758Z,2.75
2022-12-04T13:42:26.046Z,2.61
2022-12-04T13:45:27.418Z,2.95
2022-12-04T13:48:14.170Z,2.91
2022-12-04T13:51:15.045Z,2.93
2022-12-04T13:54:20.520Z,2.93
2022-12-04T13:57:16.799Z,2.93
2022-12-04T14:00:08.126Z,2.95
2022-12-04T14:03:07.714Z,2.83
2022-12-04T14:05:54.909Z,2.78
2022-12-04T14:08:43.602Z,2.71
2022-12-04T14:11:41.988Z,2.61
2022-12-04T14:14:35.947Z,2.61
2022-12-04T14:17:30.997Z,2.96
2022-12-04T14:20:34.319Z,2.92
2022-12-04T14:23:26.611Z,2.95
2022-12-04T14:26:21.157Z,3.03
2022-12-04T14:29:30.325Z,3.09
2022-12-04T14:32:26.817Z,2.97
2022-12-04T14:35:21.768Z,2.97
2022-12-04T14:38:18.652Z,2.98
2022-12-04T14:41:05.062Z,2.90
2022-12-04T14:43:51.818Z,2.89
2022-12-04T14:46:44.183Z,2.93
2022-12-04T14:49:53.835Z,2.97
2022-12-04T14:53:05.556Z,2.94
2022-12-04T14:56:07.412Z,2.94
2022-12-04T14:58:55.279Z,2.81
2022-12-04T15:01:41.983Z,2.64
2022-12-04T15:04:35.370Z,2.52
2022-12-04T15:07:23.831Z,2.35
2022-12-04T15:10:39.192Z,2.35
2022-12-04T15:13:31.793Z,2.25
2022-12-04T15:16:20.740Z,2.39
2022-12-04T15:19:18.057Z,2.34
2022-12-04T15:22:11.653Z,2.49
2022-12-04T15:24:59.254Z,2.44
2022-12-04T15:27:48.345Z,2.38
2022-12-04T15:30:39.296Z,2.45
2022-12-04T15:33:30.357Z,2.28
2022-12-04T15:36:43.004Z,2.34
2022-12-04T15:39:31.913Z,2.30
2022-12-04T15:42:18.848Z,2.56
2022-12-04T15:45:08.503Z,2.60
2022-12-04T15:47:55.757Z,2.52
2022-12-04T15:50:42.565Z,2.61
2022-12-04T15:53:34.224Z,2.63
2022-12-04T15:56:21.740Z,2.62
2022-12-04T15:59:17.810Z,2.62
2022-12-04T16:02:09.330Z,2.62
2022-12-04T16:04:56.241Z,2.44
2022-12-04T16:07:54.160Z,2.27
2022-12-04T16:10:40.521Z,2.24
2022-12-04T16:13:30.282Z,2.11
2022-12-04T16:16:20.991Z,2.09
2022-12-04T16:19:13.531Z,2.19
2022-12-04T16:22:02.430Z,2.23
2022-12-04T16:24:49.507Z,1.88
2022-12-04T16:27:35.880Z,1.85
2022-12-04T16:30:22.036Z,2.03
2022-12-04T16:33:12.716Z,2.04
2022-12-04T16:35:58.967Z,2.01
2022-12-04T16:38:45.496Z,2.12
2022-12-04T16:41:32.081Z,2.17
2022-12-04T16:44:18.614Z,2.03
2022-12-04T16:47:05.776Z,2.16
2022-12-04T16:49:53.238Z,2.09
2022-12-04T16:52:39.995Z,2.27
2022-12-04T16:55:36.893Z,2.20
2022-12-04T16:58:24.188Z,2.27
2022-12-04T17:01:36.659Z,2.21
2022-12-04T17:04:23.055Z,2.14
2022-12-04T17:07:09.540Z,2.10
2022-12-04T17:09:55.736Z,2.11
2022-12-04T17:12:42.275Z,2.31
2022-12-04T17:15:28.664Z,2.06
2022-12-04T17:18:20.788Z,2.02
2022-12-04T17:21:09.630Z,2.31
2022-12-04T17:23:56.052Z,1.84
2022-12-04T17:26:42.339Z,2.05
2022-12-04T17:29:28.711Z,1.93
2022-12-04T17:32:15.812Z,1.94
2022-12-04T17:35:02.844Z,2.22
2022-12-04T17:37:49.487Z,2.20
2022-12-04T17:40:36.018Z,2.38
2022-12-04T17:43:25.227Z,2.33
2022-12-04T17:46:16.146Z,2.18
2022-12-04T17:49:06.844Z,2.26
2022-12-04T17:51:53.359Z,2.40
2022-12-04T17:54:39.626Z,2.32
2022-12-04T17:57:25.954Z,2.10
2022-12-04T18:00:12.364Z,2.37
2022-12-04T18:02:58.781Z,2.24
2022-12-04T18:05:45.222Z,2.52
2022-12-04T18:08:31.756Z,2.31
2022-12-04T18:11:20.692Z,2.33
2022-12-04T18:14:12.468Z,2.31
2022-12-04T18:16:59.344Z,2.45
2022-12-04T18:19:45.773Z,2.58
2022-12-04T18:22:32.549Z,2.36
2022-12-04T18:25:19.411Z,2.41
2022-12-04T18:28:05.806Z,2.34
2022-12-04T18:30:53.045Z,2.48
2022-12-04T18:33:41.686Z,2.46
2022-12-04T18:36:30.728Z,2.84
2022-12-04T18:39:19.607Z,2.75
2022-12-04T18:42:06.227Z,2.75
2022-12-04T18:44:52.466Z,2.49
2022-12-04T18:47:39.034Z,2.52
2022-12-04T18:50:25.281Z,2.38
2022-12-04T18:53:11.655Z,2.30
2022-12-04T18:56:02.274Z,2.61
2022-12-04T18:58:49.132Z,2.62
2022-12-04T19:01:35.705Z,2.63
2022-12-04T19:04:24.621Z,2.65
2022-12-04T19:07:11.189Z,2.51
2022-12-04T19:10:12.513Z,2.35
2022-12-04T19:12:59.020Z,2.49
2022-12-04T19:15:47.247Z,2.26
2022-12-04T19:18:33.856Z,2.25
2022-12-04T19:21:20.176Z,2.55
2022-12-04T19:24:06.880Z,2.29
2022-12-04T19:26:53.818Z,2.38
2022-12-04T19:29:42.456Z,2.49
2022-12-04T19:32:28.755Z,2.49
2022-12-04T19:35:15.441Z,2.54
2022-12-04T19:38:01.876Z,2.35
2022-12-04T19:40:48.401Z,2.40
2022-12-04T19:43:34.788Z,2.38
2022-12-04T19:46:23.296Z,2.26
2022-12-04T19:49:12.467Z,2.37
2022-12-04T19:51:59.218Z,2.54
2022-12-04T19:54:45.564Z,2.52
2022-12-04T19:57:32.319Z,2.49
2022-12-04T20:00:19.290Z,2.70
2022-12-04T20:03:05.876Z,2.48
2022-12-04T20:05:52.116Z,2.45
2022-12-04T20:08:38.972Z,2.56
2022-12-04T20:11:28.102Z,2.55
2022-12-04T20:14:14.643Z,2.61
2022-12-04T20:17:03.898Z,2.40
2022-12-04T20:19:50.280Z,2.46
2022-12-04T20:22:36.875Z,2.43
2022-12-04T20:25:23.825Z,2.36
2022-12-04T20:28:14.460Z,2.39
2022-12-04T20:31:01.205Z,2.30
2022-12-04T20:33:49.864Z,2.51
2022-12-04T20:36:39.567Z,2.26
2022-12-04T20:39:26.341Z,2.28
2022-12-04T20:42:12.469Z,2.18
2022-12-04T20:44:58.755Z,2.45
2022-12-04T20:47:45.172Z,2.33
2022-12-04T20:50:32.018Z,2.63
2022-12-04T20:53:19.144Z,2.34
2022-12-04T20:56:05.938Z,2.15
2022-12-04T20:58:53.484Z,2.42
2022-12-04T21:01:40.796Z,2.25
2022-12-04T21:04:27.401Z,2.29
2022-12-04T21:07:13.619Z,2.13
2022-12-04T21:10:00.366Z,1.98
2022-12-04T21:13:05.401Z,2.27
2022-12-04T21:16:01.272Z,1.91
2022-12-04T21:18:47.847Z,2.07
2022-12-04T21:21:35.877Z,2.25
2022-12-04T21:24:24.271Z,2.19
2022-12-04T21:27:17.185Z,2.16
2022-12-04T21:30:07.549Z,2.23
2022-12-04T21:32:53.962Z,2.21
2022-12-04T21:35:40.259Z,2.20
2022-12-04T21:38:26.772Z,2.30
2022-12-04T21:41:33.247Z,2.36
2022-12-04T21:44:20.943Z,2.40
2022-12-04T21:47:07.322Z,2.20
2022-12-04T21:49:54.395Z,2.36
2022-12-04T21:52:40.690Z,2.15
2022-12-04T21:55:27.251Z,2.09
2022-12-04T21:58:13.504Z,2.24
2022-12-04T22:00:59.812Z,2.08
2022-12-04T22:03:46.207Z,2.22
2022-12-04T22:06:36.341Z,2.09
2022-12-04T22:09:22.899Z,2.09
2022-12-04T22:15:15.478Z,2.45
2022-12-04T22:18:03.383Z,2.33
2022-12-04T22:20:49.911Z,2.29
2022-12-04T22:23:36.725Z,2.56
2022-12-04T22:26:24.005Z,2.57
2022-12-04T22:29:42.034Z,2.32
2022-12-04T22:32:16.925Z,2.43
2022-12-04T22:35:03.324Z,2.40
2022-12-04T22:37:49.652Z,2.29
2022-12-04T22:40:37.437Z,2.20
2022-12-04T22:43:24.051Z,2.53
2022-12-04T22:46:11.492Z,2.49
2022-12-04T22:48:59.029Z,2.55
2022-12-04T22:51:45.416Z,2.36
2022-12-04T22:54:31.776Z,2.61
2022-12-04T22:57:18.993Z,2.58
2022-12-04T23:00:06.691Z,2.56
2022-12-04T23:02:53.081Z,2.33
2022-12-04T23:05:39.576Z,1.98
2022-12-04T23:08:26.400Z,2.13
2022-12-04T23:11:16.396Z,2.47
2022-12-04T23:14:05.417Z,2.03
2022-12-04T23:16:51.785Z,2.28
2022-12-04T23:19:38.433Z,2.46
2022-12-04T23:22:24.668Z,2.58
2022-12-04T23:25:10.957Z,2.39
2022-12-04T23:27:57.540Z,2.36
2022-12-04T23:30:46.033Z,2.37
2022-12-04T23:33:32.425Z,2.65
2022-12-04T23:36:19.267Z,2.66
2022-12-04T23:39:05.500Z,2.63
2022-12-04T23:41:51.817Z,2.51
2022-12-04T23:44:38.181Z,2.35
2022-12-04T23:47:25.040Z,2.77
2022-12-04T23:50:11.572Z,2.42
2022-12-04T23:52:58.107Z,2.74
2022-12-04T23:55:44.491Z,2.90
2022-12-04T23:58:31.924Z,2.61
